sensor_id;sensor_type;location;lat;lon;timestamp;P1;durP1;ratioP1;P2;durP2;ratioP2
63688;SDS011;54895;40.928;14.480;2022-11-15T00:02:28;26.05;;;14.95;;
63688;SDS011;54895;40.928;14.480;2022-11-15T00:05:13;20.38;;;13.77;;
63688;SDS011;54895;40.928;14.480;2022-11-15T00:08:00;21.90;;;13.40;;
63688;SDS011;54895;40.928;14.480;2022-11-15T00:10:57;21.48;;;12.88;;
63688;SDS011;54895;40.928;14.480;2022-11-15T00:13:42;18.95;;;12.95;;
63688;SDS011;54895;40.928;14.480;2022-11-15T00:16:27;20.42;;;12.95;;
63688;SDS011;54895;40.928;14.480;2022-11-15T00:19:12;19.60;;;13.57;;
63688;SDS011;54895;40.928;14.480;2022-11-15T00:21:57;21.00;;;13.90;;
63688;SDS011;54895;40.928;14.480;2022-11-15T00:24:42;20.05;;;13.95;;
63688;SDS011;54895;40.928;14.480;2022-11-15T00:27:27;20.25;;;14.40;;
63688;SDS011;54895;40.928;14.480;2022-11-15T00:30:12;19.92;;;14.38;;
63688;SDS011;54895;40.928;14.480;2022-11-15T00:32:57;22.75;;;15.05;;
63688;SDS011;54895;40.928;14.480;2022-11-15T00:35:45;21.10;;;14.45;;
63688;SDS011;54895;40.928;14.480;2022-11-15T00:38:33;22.42;;;14.65;;
63688;SDS011;54895;40.928;14.480;2022-11-15T00:41:19;21.73;;;14.15;;
63688;SDS011;54895;40.928;14.480;2022-11-15T00:44:04;19.95;;;14.35;;
63688;SDS011;54895;40.928;14.480;2022-11-15T00:46:49;20.98;;;14.18;;
63688;SDS011;54895;40.928;14.480;2022-11-15T00:49:34;18.92;;;13.23;;
63688;SDS011;54895;40.928;14.480;2022-11-15T00:52:18;19.08;;;12.73;;
63688;SDS011;54895;40.928;14.480;2022-11-15T00:55:03;23.27;;;14.70;;
63688;SDS011;54895;40.928;14.480;2022-11-15T00:57:49;18.90;;;14.00;;
63688;SDS011;54895;40.928;14.480;2022-11-15T01:00:34;21.15;;;15.48;;
63688;SDS011;54895;40.928;14.480;2022-11-15T01:07:10;25.65;;;16.10;;
63688;SDS011;54895;40.928;14.480;2022-11-15T01:09:55;18.85;;;13.95;;
63688;SDS011;54895;40.928;14.480;2022-11-15T01:12:39;21.73;;;15.35;;
63688;SDS011;54895;40.928;14.480;2022-11-15T01:15:24;22.92;;;15.25;;
63688;SDS011;54895;40.928;14.480;2022-11-15T01:18:24;24.92;;;16.92;;
63688;SDS011;54895;40.928;14.480;2022-11-15T01:21:10;24.40;;;15.85;;
63688;SDS011;54895;40.928;14.480;2022-11-15T01:24:00;22.85;;;16.20;;
63688;SDS011;54895;40.928;14.480;2022-11-15T01:26:45;22.67;;;16.60;;
63688;SDS011;54895;40.928;14.480;2022-11-15T01:29:31;23.40;;;16.08;;
63688;SDS011;54895;40.928;14.480;2022-11-15T01:32:15;21.92;;;15.70;;
63688;SDS011;54895;40.928;14.480;2022-11-15T01:35:01;22.15;;;16.10;;
63688;SDS011;54895;40.928;14.480;2022-11-15T01:37:45;22.70;;;16.60;;
63688;SDS011;54895;40.928;14.480;2022-11-15T01:40:30;22.92;;;17.05;;
63688;SDS011;54895;40.928;14.480;2022-11-15T01:43:26;24.70;;;17.27;;
63688;SDS011;54895;40.928;14.480;2022-11-15T01:48:57;25.85;;;18.30;;
63688;SDS011;54895;40.928;14.480;2022-11-15T01:51:46;23.58;;;17.17;;
63688;SDS011;54895;40.928;14.480;2022-11-15T01:54:32;26.67;;;16.52;;
63688;SDS011;54895;40.928;14.480;2022-11-15T01:57:17;24.98;;;17.85;;
63688;SDS011;54895;40.928;14.480;2022-11-15T02:00:03;24.48;;;17.33;;
63688;SDS011;54895;40.928;14.480;2022-11-15T02:02:49;24.45;;;17.08;;
63688;SDS011;54895;40.928;14.480;2022-11-15T02:05:35;23.83;;;16.55;;
63688;SDS011;54895;40.928;14.480;2022-11-15T02:08:21;22.38;;;15.60;;
63688;SDS011;54895;40.928;14.480;2022-11-15T02:11:08;21.17;;;15.32;;
63688;SDS011;54895;40.928;14.480;2022-11-15T02:13:54;20.85;;;14.85;;
63688;SDS011;54895;40.928;14.480;2022-11-15T02:17:06;25.08;;;16.10;;
63688;SDS011;54895;40.928;14.480;2022-11-15T02:29:10;24.17;;;17.10;;
63688;SDS011;54895;40.928;14.480;2022-11-15T02:37:53;23.63;;;17.30;;
63688;SDS011;54895;40.928;14.480;2022-11-15T02:49:46;29.70;;;19.88;;
63688;SDS011;54895;40.928;14.480;2022-11-15T02:52:33;24.10;;;17.13;;
63688;SDS011;54895;40.928;14.480;2022-11-15T02:55:27;24.67;;;17.35;;
63688;SDS011;54895;40.928;14.480;2022-11-15T03:07:48;18.70;;;13.55;;
63688;SDS011;54895;40.928;14.480;2022-11-15T03:11:11;22.17;;;14.40;;
63688;SDS011;54895;40.928;14.480;2022-11-15T03:17:06;24.83;;;13.30;;
63688;SDS011;54895;40.928;14.480;2022-11-15T03:20:14;25.50;;;14.27;;
63688;SDS011;54895;40.928;14.480;2022-11-15T03:23:06;20.80;;;13.63;;
63688;SDS011;54895;40.928;14.480;2022-11-15T03:25:54;20.33;;;13.07;;
63688;SDS011;54895;40.928;14.480;2022-11-15T03:28:43;22.95;;;13.25;;
63688;SDS011;54895;40.928;14.480;2022-11-15T03:31:36;24.25;;;12.35;;
63688;SDS011;54895;40.928;14.480;2022-11-15T03:37:48;14.85;;;11.35;;
63688;SDS011;54895;40.928;14.480;2022-11-15T03:41:21;19.20;;;11.43;;
63688;SDS011;54895;40.928;14.480;2022-11-15T03:44:07;23.10;;;13.07;;
63688;SDS011;54895;40.928;14.480;2022-11-15T03:47:00;19.10;;;12.40;;
63688;SDS011;54895;40.928;14.480;2022-11-15T03:49:55;18.45;;;11.85;;
63688;SDS011;54895;40.928;14.480;2022-11-15T03:55:31;18.02;;;11.48;;
63688;SDS011;54895;40.928;14.480;2022-11-15T03:58:17;16.02;;;11.10;;
63688;SDS011;54895;40.928;14.480;2022-11-15T04:01:01;16.30;;;10.77;;
63688;SDS011;54895;40.928;14.480;2022-11-15T04:07:43;11.52;;;7.90;;
63688;SDS011;54895;40.928;14.480;2022-11-15T04:10:28;12.63;;;7.95;;
63688;SDS011;54895;40.928;14.480;2022-11-15T04:13:13;11.73;;;8.05;;
63688;SDS011;54895;40.928;14.480;2022-11-15T04:15:58;9.88;;;7.80;;
63688;SDS011;54895;40.928;14.480;2022-11-15T04:18:43;13.60;;;8.80;;
63688;SDS011;54895;40.928;14.480;2022-11-15T04:21:28;11.75;;;8.32;;
63688;SDS011;54895;40.928;14.480;2022-11-15T04:24:31;11.60;;;8.40;;
63688;SDS011;54895;40.928;14.480;2022-11-15T04:27:16;12.38;;;8.23;;
63688;SDS011;54895;40.928;14.480;2022-11-15T04:30:01;13.30;;;8.73;;
63688;SDS011;54895;40.928;14.480;2022-11-15T04:32:45;15.32;;;9.23;;
63688;SDS011;54895;40.928;14.480;2022-11-15T04:35:30;15.90;;;9.82;;
63688;SDS011;54895;40.928;14.480;2022-11-15T04:38:15;12.98;;;9.20;;
63688;SDS011;54895;40.928;14.480;2022-11-15T04:41:00;13.40;;;9.98;;
63688;SDS011;54895;40.928;14.480;2022-11-15T04:43:45;16.98;;;10.57;;
63688;SDS011;54895;40.928;14.480;2022-11-15T04:46:29;15.10;;;10.05;;
63688;SDS011;54895;40.928;14.480;2022-11-15T04:49:14;15.35;;;9.75;;
63688;SDS011;54895;40.928;14.480;2022-11-15T04:51:59;19.33;;;10.80;;
63688;SDS011;54895;40.928;14.480;2022-11-15T04:54:44;15.45;;;9.95;;
63688;SDS011;54895;40.928;14.480;2022-11-15T04:57:29;13.55;;;9.63;;
63688;SDS011;54895;40.928;14.480;2022-11-15T05:00:16;14.55;;;10.55;;
63688;SDS011;54895;40.928;14.480;2022-11-15T05:03:01;14.68;;;10.65;;
63688;SDS011;54895;40.928;14.480;2022-11-15T05:06:30;16.58;;;12.30;;
63688;SDS011;54895;40.928;14.480;2022-11-15T05:09:16;16.08;;;11.88;;
63688;SDS011;54895;40.928;14.480;2022-11-15T05:12:02;15.13;;;11.38;;
63688;SDS011;54895;40.928;14.480;2022-11-15T05:14:47;14.25;;;10.32;;
63688;SDS011;54895;40.928;14.480;2022-11-15T05:17:31;15.27;;;10.60;;
63688;SDS011;54895;40.928;14.480;2022-11-15T05:20:16;14.95;;;12.02;;
63688;SDS011;54895;40.928;14.480;2022-11-15T05:23:01;16.15;;;12.75;;
63688;SDS011;54895;40.928;14.480;2022-11-15T05:25:45;25.33;;;14.77;;
63688;SDS011;54895;40.928;14.480;2022-11-15T05:28:30;22.10;;;15.45;;
63688;SDS011;54895;40.928;14.480;2022-11-15T05:31:15;19.27;;;12.57;;
63688;SDS011;54895;40.928;14.480;2022-11-15T05:34:00;16.10;;;11.60;;
63688;SDS011;54895;40.928;14.480;2022-11-15T05:36:48;18.25;;;12.63;;
63688;SDS011;54895;40.928;14.480;2022-11-15T05:39:33;16.30;;;11.25;;
63688;SDS011;54895;40.928;14.480;2022-11-15T05:42:18;15.98;;;11.38;;
63688;SDS011;54895;40.928;14.480;2022-11-15T05:45:04;14.25;;;9.27;;
63688;SDS011;54895;40.928;14.480;2022-11-15T05:47:50;14.63;;;9.93;;
63688;SDS011;54895;40.928;14.480;2022-11-15T05:50:36;16.45;;;9.82;;
63688;SDS011;54895;40.928;14.480;2022-11-15T05:53:25;21.60;;;10.73;;
63688;SDS011;54895;40.928;14.480;2022-11-15T05:56:10;19.17;;;10.68;;
63688;SDS011;54895;40.928;14.480;2022-11-15T05:58:56;17.75;;;10.90;;
63688;SDS011;54895;40.928;14.480;2022-11-15T06:01:42;17.67;;;10.93;;
63688;SDS011;54895;40.928;14.480;2022-11-15T06:08:11;15.73;;;10.68;;
63688;SDS011;54895;40.928;14.480;2022-11-15T06:10:56;19.13;;;10.52;;
63688;SDS011;54895;40.928;14.480;2022-11-15T06:13:41;14.30;;;10.15;;
63688;SDS011;54895;40.928;14.480;2022-11-15T06:16:26;16.13;;;10.60;;
63688;SDS011;54895;40.928;14.480;2022-11-15T06:19:11;14.32;;;10.88;;
63688;SDS011;54895;40.928;14.480;2022-11-15T06:21:55;16.40;;;9.45;;
63688;SDS011;54895;40.928;14.480;2022-11-15T06:24:40;12.63;;;9.30;;
63688;SDS011;54895;40.928;14.480;2022-11-15T06:27:25;14.60;;;8.65;;
63688;SDS011;54895;40.928;14.480;2022-11-15T06:30:10;13.00;;;8.25;;
63688;SDS011;54895;40.928;14.480;2022-11-15T06:32:58;14.57;;;7.38;;
63688;SDS011;54895;40.928;14.480;2022-11-15T06:35:47;11.13;;;7.57;;
63688;SDS011;54895;40.928;14.480;2022-11-15T06:38:32;13.65;;;8.43;;
63688;SDS011;54895;40.928;14.480;2022-11-15T06:41:17;14.82;;;8.63;;
63688;SDS011;54895;40.928;14.480;2022-11-15T06:44:02;14.88;;;8.80;;
63688;SDS011;54895;40.928;14.480;2022-11-15T06:46:47;13.68;;;8.55;;
63688;SDS011;54895;40.928;14.480;2022-11-15T06:49:32;12.45;;;7.13;;
63688;SDS011;54895;40.928;14.480;2022-11-15T06:52:17;12.45;;;7.20;;
63688;SDS011;54895;40.928;14.480;2022-11-15T06:55:06;14.95;;;7.40;;
63688;SDS011;54895;40.928;14.480;2022-11-15T06:57:52;9.57;;;6.82;;
63688;SDS011;54895;40.928;14.480;2022-11-15T07:00:36;10.88;;;7.70;;
63688;SDS011;54895;40.928;14.480;2022-11-15T07:03:21;14.77;;;8.18;;
63688;SDS011;54895;40.928;14.480;2022-11-15T07:06:07;12.82;;;7.63;;
63688;SDS011;54895;40.928;14.480;2022-11-15T07:08:53;8.18;;;5.82;;
63688;SDS011;54895;40.928;14.480;2022-11-15T07:11:38;9.43;;;5.93;;
63688;SDS011;54895;40.928;14.480;2022-11-15T07:14:22;9.77;;;6.60;;
63688;SDS011;54895;40.928;14.480;2022-11-15T07:17:07;10.38;;;6.63;;
63688;SDS011;54895;40.928;14.480;2022-11-15T07:19:52;10.82;;;6.80;;
63688;SDS011;54895;40.928;14.480;2022-11-15T07:22:37;12.77;;;6.45;;
63688;SDS011;54895;40.928;14.480;2022-11-15T07:25:22;7.63;;;5.40;;
63688;SDS011;54895;40.928;14.480;2022-11-15T07:28:07;8.35;;;5.60;;
63688;SDS011;54895;40.928;14.480;2022-11-15T07:30:52;7.93;;;5.10;;
63688;SDS011;54895;40.928;14.480;2022-11-15T07:33:37;8.30;;;4.80;;
63688;SDS011;54895;40.928;14.480;2022-11-15T07:36:22;10.10;;;5.10;;
63688;SDS011;54895;40.928;14.480;2022-11-15T07:39:07;10.18;;;5.20;;
63688;SDS011;54895;40.928;14.480;2022-11-15T07:41:52;7.35;;;4.97;;
63688;SDS011;54895;40.928;14.480;2022-11-15T07:44:56;7.18;;;4.90;;
63688;SDS011;54895;40.928;14.480;2022-11-15T07:47:44;7.95;;;5.20;;
63688;SDS011;54895;40.928;14.480;2022-11-15T07:50:30;6.72;;;4.95;;
63688;SDS011;54895;40.928;14.480;2022-11-15T07:53:15;10.68;;;5.25;;
63688;SDS011;54895;40.928;14.480;2022-11-15T07:56:00;8.40;;;5.55;;
63688;SDS011;54895;40.928;14.480;2022-11-15T07:58:45;7.97;;;5.03;;
63688;SDS011;54895;40.928;14.480;2022-11-15T08:01:31;8.27;;;5.03;;
63688;SDS011;54895;40.928;14.480;2022-11-15T08:04:15;7.45;;;4.80;;
63688;SDS011;54895;40.928;14.480;2022-11-15T08:07:00;7.40;;;5.03;;
63688;SDS011;54895;40.928;14.480;2022-11-15T08:09:45;6.85;;;4.18;;
63688;SDS011;54895;40.928;14.480;2022-11-15T08:12:30;8.05;;;4.90;;
63688;SDS011;54895;40.928;14.480;2022-11-15T08:15:15;6.88;;;4.03;;
63688;SDS011;54895;40.928;14.480;2022-11-15T08:18:01;6.07;;;4.35;;
63688;SDS011;54895;40.928;14.480;2022-11-15T08:20:48;8.05;;;4.43;;
63688;SDS011;54895;40.928;14.480;2022-11-15T08:23:33;10.45;;;5.30;;
63688;SDS011;54895;40.928;14.480;2022-11-15T08:26:18;8.52;;;4.28;;
63688;SDS011;54895;40.928;14.480;2022-11-15T08:29:03;9.07;;;4.43;;
63688;SDS011;54895;40.928;14.480;2022-11-15T08:31:48;9.68;;;4.75;;
63688;SDS011;54895;40.928;14.480;2022-11-15T08:34:33;7.90;;;4.65;;
63688;SDS011;54895;40.928;14.480;2022-11-15T08:37:17;9.18;;;4.18;;
63688;SDS011;54895;40.928;14.480;2022-11-15T08:40:03;9.73;;;4.75;;
63688;SDS011;54895;40.928;14.480;2022-11-15T08:42:48;5.68;;;4.18;;
63688;SDS011;54895;40.928;14.480;2022-11-15T08:45:33;6.13;;;3.13;;
63688;SDS011;54895;40.928;14.480;2022-11-15T08:48:19;5.53;;;3.30;;
63688;SDS011;54895;40.928;14.480;2022-11-15T08:51:03;5.03;;;2.70;;
63688;SDS011;54895;40.928;14.480;2022-11-15T08:53:48;5.40;;;2.60;;
63688;SDS011;54895;40.928;14.480;2022-11-15T08:56:33;5.10;;;2.40;;
63688;SDS011;54895;40.928;14.480;2022-11-15T08:59:18;5.20;;;2.50;;
63688;SDS011;54895;40.928;14.480;2022-11-15T09:02:03;2.50;;;1.92;;
63688;SDS011;54895;40.928;14.480;2022-11-15T09:04:49;2.63;;;1.60;;
63688;SDS011;54895;40.928;14.480;2022-11-15T09:07:33;3.90;;;1.30;;
63688;SDS011;54895;40.928;14.480;2022-11-15T09:10:18;1.88;;;0.93;;
63688;SDS011;54895;40.928;14.480;2022-11-15T09:13:03;3.92;;;1.30;;
63688;SDS011;54895;40.928;14.480;2022-11-15T09:15:49;2.22;;;1.02;;
63688;SDS011;54895;40.928;14.480;2022-11-15T09:18:34;3.75;;;1.60;;
63688;SDS011;54895;40.928;14.480;2022-11-15T09:21:19;2.10;;;1.30;;
63688;SDS011;54895;40.928;14.480;2022-11-15T09:24:05;2.53;;;1.60;;
63688;SDS011;54895;40.928;14.480;2022-11-15T09:26:50;4.97;;;1.95;;
63688;SDS011;54895;40.928;14.480;2022-11-15T09:29:36;3.20;;;1.45;;
63688;SDS011;54895;40.928;14.480;2022-11-15T09:32:21;2.30;;;1.50;;
63688;SDS011;54895;40.928;14.480;2022-11-15T09:35:09;3.17;;;1.45;;
63688;SDS011;54895;40.928;14.480;2022-11-15T09:37:54;2.78;;;1.35;;
63688;SDS011;54895;40.928;14.480;2022-11-15T09:40:39;2.65;;;1.20;;
63688;SDS011;54895;40.928;14.480;2022-11-15T09:43:29;2.72;;;0.98;;
63688;SDS011;54895;40.928;14.480;2022-11-15T09:46:31;3.70;;;1.50;;
63688;SDS011;54895;40.928;14.480;2022-11-15T09:49:45;2.80;;;1.45;;
63688;SDS011;54895;40.928;14.480;2022-11-15T09:52:23;4.30;;;1.50;;
63688;SDS011;54895;40.928;14.480;2022-11-15T09:54:50;3.30;;;1.63;;
63688;SDS011;54895;40.928;14.480;2022-11-15T09:57:24;3.28;;;1.77;;
63688;SDS011;54895;40.928;14.480;2022-11-15T10:00:20;3.70;;;1.90;;
63688;SDS011;54895;40.928;14.480;2022-11-15T10:03:08;3.47;;;1.98;;
63688;SDS011;54895;40.928;14.480;2022-11-15T10:08:25;2.88;;;1.65;;
63688;SDS011;54895;40.928;14.480;2022-11-15T10:11:05;3.03;;;1.52;;
63688;SDS011;54895;40.928;14.480;2022-11-15T10:13:35;5.50;;;2.10;;
63688;SDS011;54895;40.928;14.480;2022-11-15T10:18:35;3.70;;;1.88;;
63688;SDS011;54895;40.928;14.480;2022-11-15T10:21:24;3.30;;;1.73;;
63688;SDS011;54895;40.928;14.480;2022-11-15T10:23:58;4.78;;;1.40;;
63688;SDS011;54895;40.928;14.480;2022-11-15T10:26:24;3.05;;;1.50;;
63688;SDS011;54895;40.928;14.480;2022-11-15T10:28:51;2.63;;;1.50;;
63688;SDS011;54895;40.928;14.480;2022-11-15T10:31:27;2.42;;;1.25;;
63688;SDS011;54895;40.928;14.480;2022-11-15T10:34:10;1.40;;;1.30;;
63688;SDS011;54895;40.928;14.480;2022-11-15T10:36:44;2.92;;;1.70;;
63688;SDS011;54895;40.928;14.480;2022-11-15T10:39:12;3.03;;;1.80;;
63688;SDS011;54895;40.928;14.480;2022-11-15T10:41:40;4.22;;;1.77;;
63688;SDS011;54895;40.928;14.480;2022-11-15T10:44:18;3.30;;;1.92;;
63688;SDS011;54895;40.928;14.480;2022-11-15T10:49:24;5.88;;;1.85;;
63688;SDS011;54895;40.928;14.480;2022-11-15T10:52:28;3.78;;;1.90;;
63688;SDS011;54895;40.928;14.480;2022-11-15T10:54:52;4.43;;;2.10;;
63688;SDS011;54895;40.928;14.480;2022-11-15T10:57:21;2.72;;;2.00;;
63688;SDS011;54895;40.928;14.480;2022-11-15T10:59:51;3.03;;;2.15;;
63688;SDS011;54895;40.928;14.480;2022-11-15T11:02:36;3.03;;;1.90;;
63688;SDS011;54895;40.928;14.480;2022-11-15T11:05:20;5.18;;;1.90;;
63688;SDS011;54895;40.928;14.480;2022-11-15T11:08:02;4.13;;;2.05;;
63688;SDS011;54895;40.928;14.480;2022-11-15T11:10:28;3.63;;;1.48;;
63688;SDS011;54895;40.928;14.480;2022-11-15T11:12:55;3.60;;;1.45;;
63688;SDS011;54895;40.928;14.480;2022-11-15T11:15:22;3.17;;;1.20;;
63688;SDS011;54895;40.928;14.480;2022-11-15T11:20:38;7.95;;;1.92;;
63688;SDS011;54895;40.928;14.480;2022-11-15T11:37:10;2.30;;;1.48;;
63688;SDS011;54895;40.928;14.480;2022-11-15T11:39:51;3.08;;;1.60;;
63688;SDS011;54895;40.928;14.480;2022-11-15T11:42:34;3.22;;;1.80;;
63688;SDS011;54895;40.928;14.480;2022-11-15T11:47:55;5.10;;;1.80;;
63688;SDS011;54895;40.928;14.480;2022-11-15T11:50:44;5.18;;;1.83;;
63688;SDS011;54895;40.928;14.480;2022-11-15T11:56:03;2.72;;;1.45;;
63688;SDS011;54895;40.928;14.480;2022-11-15T11:59:24;2.78;;;1.73;;
63688;SDS011;54895;40.928;14.480;2022-11-15T12:01:58;3.65;;;1.60;;
63688;SDS011;54895;40.928;14.480;2022-11-15T12:04:38;3.92;;;1.40;;
63688;SDS011;54895;40.928;14.480;2022-11-15T12:07:29;3.63;;;1.23;;
63688;SDS011;54895;40.928;14.480;2022-11-15T12:09:58;2.08;;;1.58;;
63688;SDS011;54895;40.928;14.480;2022-11-15T12:15:30;7.80;;;2.22;;
63688;SDS011;54895;40.928;14.480;2022-11-15T12:18:18;3.25;;;1.63;;
63688;SDS011;54895;40.928;14.480;2022-11-15T12:23:46;3.38;;;1.40;;
63688;SDS011;54895;40.928;14.480;2022-11-15T12:26:18;2.53;;;1.38;;
63688;SDS011;54895;40.928;14.480;2022-11-15T12:28:49;2.00;;;1.42;;
63688;SDS011;54895;40.928;14.480;2022-11-15T12:34:12;2.05;;;1.38;;
63688;SDS011;54895;40.928;14.480;2022-11-15T12:36:45;3.63;;;1.30;;
63688;SDS011;54895;40.928;14.480;2022-11-15T12:39:13;2.40;;;1.50;;
63688;SDS011;54895;40.928;14.480;2022-11-15T12:41:50;1.85;;;1.27;;
63688;SDS011;54895;40.928;14.480;2022-11-15T13:17:38;14.02;;;2.33;;
63688;SDS011;54895;40.928;14.480;2022-11-15T13:22:48;2.55;;;1.30;;
63688;SDS011;54895;40.928;14.480;2022-11-15T13:28:10;2.92;;;1.45;;
63688;SDS011;54895;40.928;14.480;2022-11-15T13:33:21;3.65;;;1.60;;
63688;SDS011;54895;40.928;14.480;2022-11-15T13:35:51;3.47;;;1.70;;
63688;SDS011;54895;40.928;14.480;2022-11-15T13:38:27;6.75;;;1.67;;
63688;SDS011;54895;40.928;14.480;2022-11-15T13:40:56;3.65;;;1.50;;
63688;SDS011;54895;40.928;14.480;2022-11-15T13:43:36;3.00;;;1.40;;
63688;SDS011;54895;40.928;14.480;2022-11-15T13:46:22;3.47;;;1.35;;
63688;SDS011;54895;40.928;14.480;2022-11-15T13:49:08;2.22;;;1.30;;
63688;SDS011;54895;40.928;14.480;2022-11-15T13:51:53;2.65;;;1.65;;
63688;SDS011;54895;40.928;14.480;2022-11-15T13:54:28;5.47;;;1.45;;
63688;SDS011;54895;40.928;14.480;2022-11-15T13:57:05;2.92;;;1.50;;
63688;SDS011;54895;40.928;14.480;2022-11-15T14:02:37;2.72;;;1.50;;
63688;SDS011;54895;40.928;14.480;2022-11-15T14:05:15;2.83;;;1.65;;
63688;SDS011;54895;40.928;14.480;2022-11-15T14:07:52;1.65;;;1.35;;
63688;SDS011;54895;40.928;14.480;2022-11-15T14:12:53;7.50;;;1.60;;
63688;SDS011;54895;40.928;14.480;2022-11-15T14:15:28;6.25;;;1.40;;
63688;SDS011;54895;40.928;14.480;2022-11-15T14:17:58;5.68;;;1.73;;
63688;SDS011;54895;40.928;14.480;2022-11-15T14:20:35;4.03;;;1.40;;
63688;SDS011;54895;40.928;14.480;2022-11-15T14:23:25;4.03;;;1.60;;
63688;SDS011;54895;40.928;14.480;2022-11-15T14:25:55;3.65;;;1.33;;
63688;SDS011;54895;40.928;14.480;2022-11-15T14:30:50;8.15;;;2.10;;
63688;SDS011;54895;40.928;14.480;2022-11-15T14:33:34;2.78;;;1.45;;
63688;SDS011;54895;40.928;14.480;2022-11-15T14:36:12;1.95;;;1.00;;
63688;SDS011;54895;40.928;14.480;2022-11-15T14:38:40;7.30;;;1.90;;
63688;SDS011;54895;40.928;14.480;2022-11-15T14:41:11;3.45;;;1.50;;
63688;SDS011;54895;40.928;14.480;2022-11-15T14:43:44;2.10;;;1.63;;
63688;SDS011;54895;40.928;14.480;2022-11-15T14:46:11;2.40;;;1.50;;
63688;SDS011;54895;40.928;14.480;2022-11-15T14:48:37;4.90;;;1.60;;
63688;SDS011;54895;40.928;14.480;2022-11-15T14:51:08;3.38;;;1.70;;
63688;SDS011;54895;40.928;14.480;2022-11-15T14:53:37;1.73;;;1.25;;
63688;SDS011;54895;40.928;14.480;2022-11-15T14:56:03;4.20;;;1.90;;
63688;SDS011;54895;40.928;14.480;2022-11-15T14:58:30;5.80;;;2.40;;
63688;SDS011;54895;40.928;14.480;2022-11-15T15:00:56;4.82;;;2.10;;
63688;SDS011;54895;40.928;14.480;2022-11-15T15:03:22;7.38;;;3.92;;
63688;SDS011;54895;40.928;14.480;2022-11-15T15:09:46;6.18;;;3.25;;
63688;SDS011;54895;40.928;14.480;2022-11-15T15:12:21;5.13;;;2.25;;
63688;SDS011;54895;40.928;14.480;2022-11-15T15:14:49;3.63;;;1.88;;
63688;SDS011;54895;40.928;14.480;2022-11-15T15:17:16;4.18;;;2.40;;
63688;SDS011;54895;40.928;14.480;2022-11-15T15:19:43;3.42;;;1.80;;
63688;SDS011;54895;40.928;14.480;2022-11-15T15:22:14;2.38;;;1.50;;
63688;SDS011;54895;40.928;14.480;2022-11-15T15:24:43;4.43;;;2.00;;
63688;SDS011;54895;40.928;14.480;2022-11-15T15:27:09;3.55;;;2.08;;
63688;SDS011;54895;40.928;14.480;2022-11-15T15:29:36;4.47;;;2.47;;
63688;SDS011;54895;40.928;14.480;2022-11-15T15:32:02;6.30;;;2.45;;
63688;SDS011;54895;40.928;14.480;2022-11-15T15:34:29;5.22;;;2.60;;
63688;SDS011;54895;40.928;14.480;2022-11-15T15:37:08;4.53;;;2.38;;
63688;SDS011;54895;40.928;14.480;2022-11-15T15:39:52;5.47;;;2.30;;
63688;SDS011;54895;40.928;14.480;2022-11-15T15:42:20;5.65;;;2.60;;
63688;SDS011;54895;40.928;14.480;2022-11-15T15:44:47;4.45;;;2.20;;
63688;SDS011;54895;40.928;14.480;2022-11-15T15:47:21;4.35;;;2.20;;
63688;SDS011;54895;40.928;14.480;2022-11-15T15:49:49;4.30;;;2.25;;
63688;SDS011;54895;40.928;14.480;2022-11-15T15:52:16;7.97;;;2.50;;
63688;SDS011;54895;40.928;14.480;2022-11-15T15:54:43;6.03;;;2.75;;
63688;SDS011;54895;40.928;14.480;2022-11-15T15:57:11;5.65;;;3.17;;
63688;SDS011;54895;40.928;14.480;2022-11-15T15:59:38;6.97;;;4.00;;
63688;SDS011;54895;40.928;14.480;2022-11-15T16:02:05;11.32;;;5.00;;
63688;SDS011;54895;40.928;14.480;2022-11-15T16:04:31;12.32;;;5.78;;
63688;SDS011;54895;40.928;14.480;2022-11-15T16:10:53;18.85;;;8.48;;
63688;SDS011;54895;40.928;14.480;2022-11-15T16:13:19;15.18;;;6.85;;
63688;SDS011;54895;40.928;14.480;2022-11-15T16:15:46;8.65;;;5.05;;
63688;SDS011;54895;40.928;14.480;2022-11-15T16:18:17;9.57;;;5.53;;
63688;SDS011;54895;40.928;14.480;2022-11-15T16:20:44;11.27;;;5.80;;
63688;SDS011;54895;40.928;14.480;2022-11-15T16:23:16;14.07;;;6.80;;
63688;SDS011;54895;40.928;14.480;2022-11-15T16:25:47;10.48;;;6.28;;
63688;SDS011;54895;40.928;14.480;2022-11-15T16:28:26;14.55;;;6.93;;
63688;SDS011;54895;40.928;14.480;2022-11-15T16:31:14;11.82;;;7.75;;
63688;SDS011;54895;40.928;14.480;2022-11-15T16:33:40;12.95;;;7.57;;
63688;SDS011;54895;40.928;14.480;2022-11-15T16:36:14;12.85;;;7.20;;
63688;SDS011;54895;40.928;14.480;2022-11-15T16:38:42;13.25;;;7.50;;
63688;SDS011;54895;40.928;14.480;2022-11-15T16:41:09;15.48;;;7.00;;
63688;SDS011;54895;40.928;14.480;2022-11-15T16:43:35;13.80;;;7.57;;
63688;SDS011;54895;40.928;14.480;2022-11-15T16:46:06;13.88;;;8.85;;
63688;SDS011;54895;40.928;14.480;2022-11-15T16:48:34;15.30;;;8.48;;
63688;SDS011;54895;40.928;14.480;2022-11-15T16:51:02;18.00;;;10.75;;
63688;SDS011;54895;40.928;14.480;2022-11-15T16:53:29;22.65;;;13.52;;
63688;SDS011;54895;40.928;14.480;2022-11-15T16:55:56;24.42;;;15.15;;
63688;SDS011;54895;40.928;14.480;2022-11-15T16:58:23;20.75;;;13.75;;
63688;SDS011;54895;40.928;14.480;2022-11-15T17:00:53;20.02;;;13.32;;
63688;SDS011;54895;40.928;14.480;2022-11-15T17:03:23;21.70;;;13.27;;
63688;SDS011;54895;40.928;14.480;2022-11-15T17:05:50;18.13;;;12.68;;
63688;SDS011;54895;40.928;14.480;2022-11-15T17:08:17;19.75;;;12.32;;
63688;SDS011;54895;40.928;14.480;2022-11-15T17:10:47;16.17;;;10.13;;
63688;SDS011;54895;40.928;14.480;2022-11-15T17:13:13;17.33;;;10.20;;
63688;SDS011;54895;40.928;14.480;2022-11-15T17:15:39;16.15;;;11.80;;
63688;SDS011;54895;40.928;14.480;2022-11-15T17:18:06;19.25;;;12.02;;
63688;SDS011;54895;40.928;14.480;2022-11-15T17:20:32;15.63;;;10.50;;
63688;SDS011;54895;40.928;14.480;2022-11-15T17:22:58;18.70;;;9.80;;
63688;SDS011;54895;40.928;14.480;2022-11-15T17:25:25;18.42;;;10.95;;
63688;SDS011;54895;40.928;14.480;2022-11-15T17:27:51;12.77;;;10.20;;
63688;SDS011;54895;40.928;14.480;2022-11-15T17:30:18;17.10;;;10.40;;
63688;SDS011;54895;40.928;14.480;2022-11-15T17:32:45;15.55;;;9.77;;
63688;SDS011;54895;40.928;14.480;2022-11-15T17:35:12;15.75;;;9.65;;
63688;SDS011;54895;40.928;14.480;2022-11-15T17:37:39;15.20;;;8.77;;
63688;SDS011;54895;40.928;14.480;2022-11-15T17:40:05;17.10;;;11.15;;
63688;SDS011;54895;40.928;14.480;2022-11-15T17:42:32;17.95;;;10.73;;
63688;SDS011;54895;40.928;14.480;2022-11-15T17:44:59;20.10;;;11.50;;
63688;SDS011;54895;40.928;14.480;2022-11-15T17:47:25;21.33;;;10.43;;
63688;SDS011;54895;40.928;14.480;2022-11-15T17:49:51;21.13;;;11.05;;
63688;SDS011;54895;40.928;14.480;2022-11-15T17:52:18;22.35;;;10.65;;
63688;SDS011;54895;40.928;14.480;2022-11-15T17:54:44;23.67;;;10.20;;
63688;SDS011;54895;40.928;14.480;2022-11-15T17:57:10;24.90;;;10.77;;
63688;SDS011;54895;40.928;14.480;2022-11-15T17:59:36;20.30;;;10.07;;
63688;SDS011;54895;40.928;14.480;2022-11-15T18:02:03;23.90;;;10.40;;
63688;SDS011;54895;40.928;14.480;2022-11-15T18:04:31;26.38;;;10.63;;
63688;SDS011;54895;40.928;14.480;2022-11-15T18:06:57;21.25;;;9.48;;
63688;SDS011;54895;40.928;14.480;2022-11-15T18:09:23;20.83;;;9.85;;
63688;SDS011;54895;40.928;14.480;2022-11-15T18:11:50;20.80;;;10.30;;
63688;SDS011;54895;40.928;14.480;2022-11-15T18:14:19;20.05;;;9.50;;